Irricana, Canada
Current Conditions -  °F | °C
As of 5:00 PM on Friday 21 Nov 2014 (Local Time) from CYYC Reporting Station
Scattered Clouds Scattered Clouds  
Wind Chill: 37°   Ceiling: Unl
Heat Index: 41°   Visibility: 40mi
Dew Point: 21°   Wind: 6mph
Humidity: 45%   Direction: 220°SW
Pressure: 29.5"   Gusts: NA
Location:  51.32°N, 113.62°W
Report Text: CYYC 220000Z 22005KT 40SM FEW050 FEW100 SCT220 05/M06 A2950 RMK SC1AC2CI2 SC TR SLP016 DENSITY ALT 3700FT
Loading
Personal Weather Stations






























Interactive Weather Map New forecast layout! Learn more

10-Day Weather Forecast

Advertisements
Track Severe Weather on mobile